Baker, MT

5:46 AM MDT on July 28, 2016 (GMT -0600)
Baker Municipal | | Change Station

Elev 2972 ft 46.35 °N, 104.26 °W | Updated 55 minutes ago

Partly Cloudy
Partly Cloudy
59 °F
Feels Like 59 °F
N
8
Wind Variable Wind from SE

Today
High -- | Low -- °F
--% Chance of Precip.
Yesterday
High -- | Low -- °F
Precip. -- in
Pressure 30.07 in
Visibility 10.0 miles
Clouds Few 10000 ft
Dew Point 58 °F
Humidity 96%
Rainfall 0.27 in
Snow Depth Not available.
5:34 AM 8:32 PM
Waning Crescent, 33% visible
METAR KBHK 281051Z AUTO 13007KT 10SM FEW100 15/14 A3012 RMK AO2 RAB0956E13 SLP182 P0000 T01500144
Pressure 30.07 in
Visibility 10.0 miles
Clouds Few 10000 ft
Dew Point 58 °F
Humidity 96%
Rainfall 0.27 in
Snow Depth Not available.
5:34 AM 8:32 PM
Waning Crescent, 33% visible
METAR KBHK 281051Z AUTO 13007KT 10SM FEW100 15/14 A3012 RMK AO2 RAB0956E13 SLP182 P0000 T01500144

10-Day Weather Forecast

Almanac

Astronomy

Jul. 28, 2016 Rise Set
Actual Time
Civil Twilight
Nautical Twilight
Astronomical Twilight
Moon
Length of Visible Light
Length of Day
Tomorrow will be .
, % of the Moon is Illuminated

Today's Extremes

State Highs State Lows

Community

WunderPhotos

Upload Photos

1,928,096 photos uploaded!

WunderBlog® & News

Nearby

Air Quality

  Air Quality AQ Index Pollutant
Not available.

Snow Depth

Station Depth Elevation

Earthquake Activity

City Distance Mag. Time & Date
Minimum magnitude displayed is 2.5.

Coastal Water Temperatures

Place Temperature

Stations

Nearby Weather Stations

Station Location Temp. Windchill Dew Point Humidity Wind Precip. Elev Updated Type
                   

Watches & Warnings

There are currently no watches in effect.